sensor_id;sensor_type;location;lat;lon;timestamp;pressure;altitude;pressure_sealevel;temperature;humidity
27984;BME280;15317;50.360;8.726;2023-07-20T00:02:35;99244.66;;;16.65;92.85
27984;BME280;15317;50.360;8.726;2023-07-20T00:07:39;99246.94;;;16.55;96.03
27984;BME280;15317;50.360;8.726;2023-07-20T00:12:43;99234.81;;;16.36;98.18
27984;BME280;15317;50.360;8.726;2023-07-20T00:17:49;99240.78;;;16.12;100.00
27984;BME280;15317;50.360;8.726;2023-07-20T00:22:53;99244.94;;;16.01;100.00
27984;BME280;15317;50.360;8.726;2023-07-20T00:28:01;99249.03;;;15.84;100.00
27984;BME280;15317;50.360;8.726;2023-07-20T00:33:04;99250.50;;;15.59;100.00
27984;BME280;15317;50.360;8.726;2023-07-20T00:38:07;99258.56;;;15.46;100.00
27984;BME280;15317;50.360;8.726;2023-07-20T00:43:12;99256.09;;;15.29;100.00
27984;BME280;15317;50.360;8.726;2023-07-20T00:48:15;99257.66;;;15.17;100.00
27984;BME280;15317;50.360;8.726;2023-07-20T00:53:18;99252.47;;;15.01;100.00
27984;BME280;15317;50.360;8.726;2023-07-20T00:58:24;99263.03;;;14.89;100.00
27984;BME280;15317;50.360;8.726;2023-07-20T01:03:27;99271.16;;;14.83;100.00
27984;BME280;15317;50.360;8.726;2023-07-20T01:08:33;99259.72;;;14.73;100.00
27984;BME280;15317;50.360;8.726;2023-07-20T01:13:42;99264.03;;;14.67;100.00
27984;BME280;15317;50.360;8.726;2023-07-20T01:18:46;99275.19;;;14.66;100.00
27984;BME280;15317;50.360;8.726;2023-07-20T01:24:08;99274.94;;;14.46;100.00
27984;BME280;15317;50.360;8.726;2023-07-20T01:29:37;99275.16;;;14.36;100.00
27984;BME280;15317;50.360;8.726;2023-07-20T01:34:48;99267.75;;;14.30;100.00
27984;BME280;15317;50.360;8.726;2023-07-20T01:39:55;99272.94;;;14.25;100.00
27984;BME280;15317;50.360;8.726;2023-07-20T01:44:59;99269.25;;;14.18;100.00
27984;BME280;15317;50.360;8.726;2023-07-20T01:50:04;99280.34;;;14.16;100.00
27984;BME280;15317;50.360;8.726;2023-07-20T01:55:08;99281.47;;;14.22;100.00
27984;BME280;15317;50.360;8.726;2023-07-20T02:00:12;99283.09;;;14.31;100.00
27984;BME280;15317;50.360;8.726;2023-07-20T02:05:17;99293.56;;;14.42;100.00
27984;BME280;15317;50.360;8.726;2023-07-20T02:10:20;99299.03;;;14.57;100.00
27984;BME280;15317;50.360;8.726;2023-07-20T02:15:23;99291.94;;;14.62;100.00
27984;BME280;15317;50.360;8.726;2023-07-20T02:20:28;99296.66;;;14.69;100.00
27984;BME280;15317;50.360;8.726;2023-07-20T02:25:31;99299.28;;;14.77;100.00
27984;BME280;15317;50.360;8.726;2023-07-20T02:30:37;99284.19;;;14.81;100.00
27984;BME280;15317;50.360;8.726;2023-07-20T02:35:42;99294.16;;;14.88;100.00
27984;BME280;15317;50.360;8.726;2023-07-20T02:40:45;99283.59;;;15.00;100.00
27984;BME280;15317;50.360;8.726;2023-07-20T02:45:50;99282.03;;;15.12;100.00
27984;BME280;15317;50.360;8.726;2023-07-20T02:50:54;99287.16;;;15.22;100.00
27984;BME280;15317;50.360;8.726;2023-07-20T02:55:58;99284.31;;;15.30;100.00
27984;BME280;15317;50.360;8.726;2023-07-20T03:01:01;99288.56;;;15.32;100.00
27984;BME280;15317;50.360;8.726;2023-07-20T03:06:05;99283.59;;;15.42;100.00
27984;BME280;15317;50.360;8.726;2023-07-20T03:11:10;99279.53;;;15.53;100.00
27984;BME280;15317;50.360;8.726;2023-07-20T03:16:18;99283.84;;;15.62;100.00
27984;BME280;15317;50.360;8.726;2023-07-20T03:21:24;99278.84;;;15.72;100.00
27984;BME280;15317;50.360;8.726;2023-07-20T03:26:28;99274.72;;;15.83;100.00
27984;BME280;15317;50.360;8.726;2023-07-20T03:31:32;99279.00;;;15.92;100.00
27984;BME280;15317;50.360;8.726;2023-07-20T03:36:36;99276.13;;;16.00;100.00
27984;BME280;15317;50.360;8.726;2023-07-20T03:41:39;99281.25;;;16.10;100.00
27984;BME280;15317;50.360;8.726;2023-07-20T03:46:43;99293.94;;;16.17;100.00
27984;BME280;15317;50.360;8.726;2023-07-20T03:51:48;99302.16;;;16.17;100.00
27984;BME280;15317;50.360;8.726;2023-07-20T03:56:51;99308.69;;;16.16;100.00
27984;BME280;15317;50.360;8.726;2023-07-20T04:01:55;99311.63;;;16.15;100.00
27984;BME280;15317;50.360;8.726;2023-07-20T04:07:00;99304.88;;;16.17;100.00
27984;BME280;15317;50.360;8.726;2023-07-20T04:12:03;99317.88;;;16.02;100.00
27984;BME280;15317;50.360;8.726;2023-07-20T04:17:06;99315.13;;;16.02;100.00
27984;BME280;15317;50.360;8.726;2023-07-20T04:22:11;99314.84;;;15.97;100.00
27984;BME280;15317;50.360;8.726;2023-07-20T04:27:17;99316.56;;;15.98;100.00
27984;BME280;15317;50.360;8.726;2023-07-20T04:32:20;99317.34;;;15.92;100.00
27984;BME280;15317;50.360;8.726;2023-07-20T04:37:24;99313.84;;;15.77;100.00
27984;BME280;15317;50.360;8.726;2023-07-20T04:42:28;99321.44;;;15.75;100.00
27984;BME280;15317;50.360;8.726;2023-07-20T04:47:31;99311.66;;;15.66;100.00
27984;BME280;15317;50.360;8.726;2023-07-20T04:52:35;99326.00;;;15.68;100.00
27984;BME280;15317;50.360;8.726;2023-07-20T04:57:44;99317.78;;;15.68;100.00
27984;BME280;15317;50.360;8.726;2023-07-20T05:02:47;99319.53;;;15.75;100.00
27984;BME280;15317;50.360;8.726;2023-07-20T05:07:52;99318.38;;;15.91;100.00
27984;BME280;15317;50.360;8.726;2023-07-20T05:12:55;99317.69;;;16.10;100.00
27984;BME280;15317;50.360;8.726;2023-07-20T05:17:58;99320.50;;;16.17;100.00
27984;BME280;15317;50.360;8.726;2023-07-20T05:23:02;99327.28;;;16.21;100.00
27984;BME280;15317;50.360;8.726;2023-07-20T05:28:06;99333.84;;;16.27;100.00
27984;BME280;15317;50.360;8.726;2023-07-20T05:33:09;99338.28;;;16.28;100.00
27984;BME280;15317;50.360;8.726;2023-07-20T05:38:14;99338.81;;;16.44;100.00
27984;BME280;15317;50.360;8.726;2023-07-20T05:43:17;99344.47;;;16.64;100.00
27984;BME280;15317;50.360;8.726;2023-07-20T05:48:20;99336.56;;;16.89;100.00
27984;BME280;15317;50.360;8.726;2023-07-20T05:53:24;99341.34;;;17.28;100.00
27984;BME280;15317;50.360;8.726;2023-07-20T05:58:28;99337.66;;;17.62;100.00
27984;BME280;15317;50.360;8.726;2023-07-20T06:03:31;99348.66;;;17.82;98.43
27984;BME280;15317;50.360;8.726;2023-07-20T06:08:36;99344.03;;;17.95;95.87
27984;BME280;15317;50.360;8.726;2023-07-20T06:13:39;99359.06;;;18.06;94.98
27984;BME280;15317;50.360;8.726;2023-07-20T06:18:43;99341.06;;;17.97;94.69
27984;BME280;15317;50.360;8.726;2023-07-20T06:23:48;99347.41;;;18.04;96.44
27984;BME280;15317;50.360;8.726;2023-07-20T06:28:52;99349.75;;;18.33;91.65
27984;BME280;15317;50.360;8.726;2023-07-20T06:33:55;99354.44;;;19.10;88.30
27984;BME280;15317;50.360;8.726;2023-07-20T06:38:59;99357.03;;;20.13;82.68
27984;BME280;15317;50.360;8.726;2023-07-20T06:44:07;99362.75;;;20.11;76.90
27984;BME280;15317;50.360;8.726;2023-07-20T06:49:23;99364.88;;;19.84;80.34
27984;BME280;15317;50.360;8.726;2023-07-20T06:54:28;99379.25;;;19.55;82.08
27984;BME280;15317;50.360;8.726;2023-07-20T06:59:36;99367.34;;;19.61;82.25
27984;BME280;15317;50.360;8.726;2023-07-20T07:04:43;99368.97;;;19.75;81.66
27984;BME280;15317;50.360;8.726;2023-07-20T07:09:48;99371.53;;;20.33;78.12
27984;BME280;15317;50.360;8.726;2023-07-20T07:14:52;99377.91;;;21.49;72.09
27984;BME280;15317;50.360;8.726;2023-07-20T07:19:55;99383.22;;;22.22;64.91
27984;BME280;15317;50.360;8.726;2023-07-20T07:25:01;99379.19;;;23.35;61.98
27984;BME280;15317;50.360;8.726;2023-07-20T07:30:06;99402.03;;;22.67;59.17
27984;BME280;15317;50.360;8.726;2023-07-20T07:35:09;99396.69;;;23.75;60.40
27984;BME280;15317;50.360;8.726;2023-07-20T07:40:14;99390.00;;;22.38;59.33
27984;BME280;15317;50.360;8.726;2023-07-20T07:45:18;99396.13;;;21.68;63.71
27984;BME280;15317;50.360;8.726;2023-07-20T07:50:21;99392.78;;;21.30;65.27
27984;BME280;15317;50.360;8.726;2023-07-20T07:55:25;99380.63;;;20.58;66.95
27984;BME280;15317;50.360;8.726;2023-07-20T08:00:30;99383.72;;;20.86;64.32
27984;BME280;15317;50.360;8.726;2023-07-20T08:05:33;99392.78;;;21.12;62.99
27984;BME280;15317;50.360;8.726;2023-07-20T08:10:38;99395.06;;;21.51;61.62
27984;BME280;15317;50.360;8.726;2023-07-20T08:15:49;99398.41;;;21.42;61.80
27984;BME280;15317;50.360;8.726;2023-07-20T08:20:52;99401.84;;;21.37;66.31
27984;BME280;15317;50.360;8.726;2023-07-20T08:25:56;99387.00;;;21.98;63.74
27984;BME280;15317;50.360;8.726;2023-07-20T08:31:00;99402.97;;;23.31;57.22
27984;BME280;15317;50.360;8.726;2023-07-20T08:36:03;99413.53;;;23.57;59.14
27984;BME280;15317;50.360;8.726;2023-07-20T08:41:13;99416.41;;;22.99;56.83
27984;BME280;15317;50.360;8.726;2023-07-20T08:46:16;99406.09;;;22.53;57.46
27984;BME280;15317;50.360;8.726;2023-07-20T08:51:21;99405.41;;;22.69;58.75
27984;BME280;15317;50.360;8.726;2023-07-20T08:56:26;99412.59;;;24.08;54.90
27984;BME280;15317;50.360;8.726;2023-07-20T09:01:29;99405.81;;;25.16;49.21
27984;BME280;15317;50.360;8.726;2023-07-20T09:06:32;99406.19;;;25.63;46.87
27984;BME280;15317;50.360;8.726;2023-07-20T09:11:38;99410.19;;;25.12;47.14
27984;BME280;15317;50.360;8.726;2023-07-20T09:16:52;99402.53;;;25.63;48.12
27984;BME280;15317;50.360;8.726;2023-07-20T09:21:56;99395.69;;;26.24;48.62
27984;BME280;15317;50.360;8.726;2023-07-20T09:27:01;99407.44;;;26.58;42.73
27984;BME280;15317;50.360;8.726;2023-07-20T09:32:06;99414.13;;;25.76;45.42
27984;BME280;15317;50.360;8.726;2023-07-20T09:37:26;99411.22;;;25.06;45.76
27984;BME280;15317;50.360;8.726;2023-07-20T09:42:31;99410.94;;;26.16;42.71
27984;BME280;15317;50.360;8.726;2023-07-20T09:47:37;99405.03;;;25.42;46.28
27984;BME280;15317;50.360;8.726;2023-07-20T09:52:41;99402.97;;;25.54;45.45
27984;BME280;15317;50.360;8.726;2023-07-20T09:57:50;99391.06;;;26.34;46.20
27984;BME280;15317;50.360;8.726;2023-07-20T10:02:55;99392.56;;;26.79;41.38
27984;BME280;15317;50.360;8.726;2023-07-20T10:07:59;99394.13;;;26.06;44.76
27984;BME280;15317;50.360;8.726;2023-07-20T10:13:10;99391.25;;;26.55;40.97
27984;BME280;15317;50.360;8.726;2023-07-20T10:18:18;99393.38;;;27.17;38.43
27984;BME280;15317;50.360;8.726;2023-07-20T10:23:26;99386.75;;;27.90;36.15
27984;BME280;15317;50.360;8.726;2023-07-20T10:28:33;99386.44;;;27.76;35.72
27984;BME280;15317;50.360;8.726;2023-07-20T10:33:36;99374.91;;;27.00;38.91
27984;BME280;15317;50.360;8.726;2023-07-20T10:38:42;99371.66;;;27.24;35.50
27984;BME280;15317;50.360;8.726;2023-07-20T10:43:48;99355.44;;;27.68;34.83
27984;BME280;15317;50.360;8.726;2023-07-20T10:49:01;99351.84;;;27.92;35.92
27984;BME280;15317;50.360;8.726;2023-07-20T10:54:08;99345.75;;;28.66;33.77
27984;BME280;15317;50.360;8.726;2023-07-20T10:59:19;99356.91;;;28.66;34.43
27984;BME280;15317;50.360;8.726;2023-07-20T11:04:38;99348.50;;;29.12;34.23
27984;BME280;15317;50.360;8.726;2023-07-20T11:09:42;99344.63;;;28.93;33.64
27984;BME280;15317;50.360;8.726;2023-07-20T11:14:55;99352.47;;;28.76;35.79
27984;BME280;15317;50.360;8.726;2023-07-20T11:20:00;99345.75;;;28.72;34.71
27984;BME280;15317;50.360;8.726;2023-07-20T11:25:10;99333.22;;;28.28;31.83
27984;BME280;15317;50.360;8.726;2023-07-20T11:30:16;99330.69;;;28.78;32.95
27984;BME280;15317;50.360;8.726;2023-07-20T11:35:20;99329.81;;;29.67;32.25
27984;BME280;15317;50.360;8.726;2023-07-20T11:40:23;99322.44;;;29.27;31.81
27984;BME280;15317;50.360;8.726;2023-07-20T11:45:29;99313.28;;;29.06;32.39
27984;BME280;15317;50.360;8.726;2023-07-20T11:50:38;99317.16;;;29.10;32.83
27984;BME280;15317;50.360;8.726;2023-07-20T11:55:42;99303.31;;;28.39;32.23
27984;BME280;15317;50.360;8.726;2023-07-20T12:00:47;99323.97;;;29.58;30.49
27984;BME280;15317;50.360;8.726;2023-07-20T12:05:50;99302.09;;;29.06;29.80
27984;BME280;15317;50.360;8.726;2023-07-20T12:11:03;99292.09;;;28.75;30.31
27984;BME280;15317;50.360;8.726;2023-07-20T12:16:09;99295.22;;;28.27;31.51
27984;BME280;15317;50.360;8.726;2023-07-20T12:21:12;99299.38;;;28.76;31.42
27984;BME280;15317;50.360;8.726;2023-07-20T12:26:15;99291.59;;;28.27;33.68
27984;BME280;15317;50.360;8.726;2023-07-20T12:31:20;99300.69;;;29.68;31.86
27984;BME280;15317;50.360;8.726;2023-07-20T12:36:25;99295.34;;;30.15;29.89
27984;BME280;15317;50.360;8.726;2023-07-20T12:41:28;99295.25;;;29.87;27.33
27984;BME280;15317;50.360;8.726;2023-07-20T12:46:33;99285.41;;;29.89;28.60
27984;BME280;15317;50.360;8.726;2023-07-20T12:51:38;99296.25;;;30.40;27.66
27984;BME280;15317;50.360;8.726;2023-07-20T12:56:41;99276.25;;;29.29;27.62
27984;BME280;15317;50.360;8.726;2023-07-20T13:01:49;99286.31;;;29.40;29.52
27984;BME280;15317;50.360;8.726;2023-07-20T13:06:52;99269.41;;;29.56;27.90
27984;BME280;15317;50.360;8.726;2023-07-20T13:11:56;99259.06;;;30.00;27.51
27984;BME280;15317;50.360;8.726;2023-07-20T13:17:01;99261.06;;;29.95;32.71
27984;BME280;15317;50.360;8.726;2023-07-20T13:22:04;99252.31;;;30.01;29.60
27984;BME280;15317;50.360;8.726;2023-07-20T13:27:07;99255.38;;;29.06;28.96
27984;BME280;15317;50.360;8.726;2023-07-20T13:32:14;99237.34;;;28.58;29.11
27984;BME280;15317;50.360;8.726;2023-07-20T13:37:18;99248.53;;;29.77;27.93
27984;BME280;15317;50.360;8.726;2023-07-20T13:42:23;99249.09;;;29.79;28.78
27984;BME280;15317;50.360;8.726;2023-07-20T13:47:28;99242.91;;;28.79;29.07
27984;BME280;15317;50.360;8.726;2023-07-20T13:52:31;99242.91;;;27.42;29.26
27984;BME280;15317;50.360;8.726;2023-07-20T13:57:37;99239.38;;;26.42;31.83
27984;BME280;15317;50.360;8.726;2023-07-20T14:02:42;99237.59;;;25.94;31.81
27984;BME280;15317;50.360;8.726;2023-07-20T14:07:48;99230.13;;;25.68;33.50
27984;BME280;15317;50.360;8.726;2023-07-20T14:12:51;99233.41;;;25.60;35.78
27984;BME280;15317;50.360;8.726;2023-07-20T14:17:56;99223.25;;;25.22;37.20
27984;BME280;15317;50.360;8.726;2023-07-20T14:22:59;99225.31;;;25.31;37.79
27984;BME280;15317;50.360;8.726;2023-07-20T14:28:03;99219.38;;;25.23;37.01
27984;BME280;15317;50.360;8.726;2023-07-20T14:33:07;99227.91;;;25.16;36.38
27984;BME280;15317;50.360;8.726;2023-07-20T14:38:11;99228.97;;;25.10;36.14
27984;BME280;15317;50.360;8.726;2023-07-20T14:43:14;99227.06;;;24.72;37.88
27984;BME280;15317;50.360;8.726;2023-07-20T14:48:18;99222.88;;;24.69;38.13
27984;BME280;15317;50.360;8.726;2023-07-20T14:53:22;99213.44;;;24.70;38.96
27984;BME280;15317;50.360;8.726;2023-07-20T14:58:36;99221.13;;;24.85;38.00
27984;BME280;15317;50.360;8.726;2023-07-20T15:03:41;99227.97;;;24.56;36.39
27984;BME280;15317;50.360;8.726;2023-07-20T15:08:44;99213.31;;;24.60;41.23
27984;BME280;15317;50.360;8.726;2023-07-20T15:13:47;99218.06;;;24.43;42.80
27984;BME280;15317;50.360;8.726;2023-07-20T15:18:51;99212.94;;;24.73;40.96
27984;BME280;15317;50.360;8.726;2023-07-20T15:23:55;99204.28;;;24.70;41.97
27984;BME280;15317;50.360;8.726;2023-07-20T15:28:58;99199.50;;;24.65;42.71
27984;BME280;15317;50.360;8.726;2023-07-20T15:34:03;99201.59;;;24.97;43.54
27984;BME280;15317;50.360;8.726;2023-07-20T15:39:07;99201.84;;;24.95;41.98
27984;BME280;15317;50.360;8.726;2023-07-20T15:44:12;99200.94;;;24.90;41.80
27984;BME280;15317;50.360;8.726;2023-07-20T15:49:16;99197.81;;;24.64;43.04
27984;BME280;15317;50.360;8.726;2023-07-20T15:54:20;99193.97;;;24.27;43.77
27984;BME280;15317;50.360;8.726;2023-07-20T15:59:24;99193.31;;;24.20;43.80
27984;BME280;15317;50.360;8.726;2023-07-20T16:04:28;99192.56;;;24.46;44.67
27984;BME280;15317;50.360;8.726;2023-07-20T16:09:32;99181.97;;;24.65;44.55
27984;BME280;15317;50.360;8.726;2023-07-20T16:14:38;99182.69;;;24.33;44.54
27984;BME280;15317;50.360;8.726;2023-07-20T16:19:46;99180.59;;;24.62;43.31
27984;BME280;15317;50.360;8.726;2023-07-20T16:24:49;99173.16;;;25.43;42.54
27984;BME280;15317;50.360;8.726;2023-07-20T16:29:52;99172.34;;;25.75;39.82
27984;BME280;15317;50.360;8.726;2023-07-20T16:34:58;99166.50;;;24.47;43.72
27984;BME280;15317;50.360;8.726;2023-07-20T16:40:13;99168.66;;;24.23;42.61
27984;BME280;15317;50.360;8.726;2023-07-20T16:45:20;99164.25;;;23.72;43.36
27984;BME280;15317;50.360;8.726;2023-07-20T16:50:25;99152.59;;;23.53;44.71
27984;BME280;15317;50.360;8.726;2023-07-20T16:55:28;99153.38;;;24.21;44.07
27984;BME280;15317;50.360;8.726;2023-07-20T17:00:31;99152.59;;;24.91;41.95
27984;BME280;15317;50.360;8.726;2023-07-20T17:05:36;99152.94;;;24.29;42.46
27984;BME280;15317;50.360;8.726;2023-07-20T17:10:39;99157.91;;;24.27;42.78
27984;BME280;15317;50.360;8.726;2023-07-20T17:15:45;99156.53;;;24.29;43.17
27984;BME280;15317;50.360;8.726;2023-07-20T17:20:50;99150.38;;;23.89;44.77
27984;BME280;15317;50.360;8.726;2023-07-20T17:25:54;99157.03;;;23.71;43.61
27984;BME280;15317;50.360;8.726;2023-07-20T17:31:00;99152.84;;;23.52;47.60
27984;BME280;15317;50.360;8.726;2023-07-20T17:36:05;99144.53;;;23.52;45.98
27984;BME280;15317;50.360;8.726;2023-07-20T17:41:11;99147.94;;;23.26;47.23
27984;BME280;15317;50.360;8.726;2023-07-20T17:46:17;99144.28;;;23.08;44.49
27984;BME280;15317;50.360;8.726;2023-07-20T17:51:24;99137.03;;;22.91;45.05
27984;BME280;15317;50.360;8.726;2023-07-20T17:56:28;99144.75;;;22.49;48.02
27984;BME280;15317;50.360;8.726;2023-07-20T18:01:31;99138.78;;;22.28;50.51
27984;BME280;15317;50.360;8.726;2023-07-20T18:06:36;99134.59;;;22.14;49.06
27984;BME280;15317;50.360;8.726;2023-07-20T18:11:39;99131.34;;;21.94;50.94
27984;BME280;15317;50.360;8.726;2023-07-20T18:16:42;99135.94;;;21.77;50.54
27984;BME280;15317;50.360;8.726;2023-07-20T18:21:47;99138.81;;;21.82;49.61
27984;BME280;15317;50.360;8.726;2023-07-20T18:26:50;99129.56;;;21.64;51.70
27984;BME280;15317;50.360;8.726;2023-07-20T18:31:53;99135.09;;;21.53;51.38
27984;BME280;15317;50.360;8.726;2023-07-20T18:36:57;99125.84;;;21.36;51.53
27984;BME280;15317;50.360;8.726;2023-07-20T18:42:01;99127.47;;;21.25;51.87
27984;BME280;15317;50.360;8.726;2023-07-20T18:52:08;99124.81;;;20.88;54.33
27984;BME280;15317;50.360;8.726;2023-07-20T18:57:12;99125.50;;;20.72;56.00
27984;BME280;15317;50.360;8.726;2023-07-20T19:02:16;99118.34;;;20.53;57.20
27984;BME280;15317;50.360;8.726;2023-07-20T19:07:20;99124.28;;;20.38;56.45
27984;BME280;15317;50.360;8.726;2023-07-20T19:12:24;99128.00;;;20.26;57.85
27984;BME280;15317;50.360;8.726;2023-07-20T19:17:27;99130.94;;;20.13;59.62
27984;BME280;15317;50.360;8.726;2023-07-20T19:22:33;99133.81;;;19.99;61.00
27984;BME280;15317;50.360;8.726;2023-07-20T19:27:37;99136.56;;;19.81;61.82
27984;BME280;15317;50.360;8.726;2023-07-20T19:32:40;99135.53;;;19.57;65.19
27984;BME280;15317;50.360;8.726;2023-07-20T19:37:45;99136.56;;;19.31;66.26
27984;BME280;15317;50.360;8.726;2023-07-20T19:42:48;99141.63;;;19.10;66.73
27984;BME280;15317;50.360;8.726;2023-07-20T19:47:51;99145.38;;;18.84;70.16
27984;BME280;15317;50.360;8.726;2023-07-20T19:52:56;99146.19;;;18.60;72.58
27984;BME280;15317;50.360;8.726;2023-07-20T19:58:02;99143.88;;;18.43;74.15
27984;BME280;15317;50.360;8.726;2023-07-20T20:03:05;99149.09;;;18.20;75.61
27984;BME280;15317;50.360;8.726;2023-07-20T20:08:13;99152.28;;;18.04;74.86
27984;BME280;15317;50.360;8.726;2023-07-20T20:13:16;99152.34;;;17.91;76.10
27984;BME280;15317;50.360;8.726;2023-07-20T20:18:19;99149.63;;;17.77;77.42
27984;BME280;15317;50.360;8.726;2023-07-20T20:23:26;99145.63;;;17.73;77.67
27984;BME280;15317;50.360;8.726;2023-07-20T20:28:29;99142.63;;;17.75;78.50
27984;BME280;15317;50.360;8.726;2023-07-20T20:33:32;99135.47;;;17.74;78.04
27984;BME280;15317;50.360;8.726;2023-07-20T20:38:38;99126.63;;;17.65;80.40
27984;BME280;15317;50.360;8.726;2023-07-20T20:43:41;99135.28;;;17.62;79.93
27984;BME280;15317;50.360;8.726;2023-07-20T20:48:45;99123.84;;;17.59;82.04
27984;BME280;15317;50.360;8.726;2023-07-20T20:53:50;99129.34;;;17.52;82.18
27984;BME280;15317;50.360;8.726;2023-07-20T20:58:53;99125.78;;;17.45;82.93
27984;BME280;15317;50.360;8.726;2023-07-20T21:03:56;99123.03;;;17.45;83.55
27984;BME280;15317;50.360;8.726;2023-07-20T21:09:01;99131.88;;;17.47;83.21
27984;BME280;15317;50.360;8.726;2023-07-20T21:14:05;99118.38;;;17.46;84.05
27984;BME280;15317;50.360;8.726;2023-07-20T21:19:08;99124.28;;;17.36;85.33
27984;BME280;15317;50.360;8.726;2023-07-20T21:24:13;99113.75;;;17.33;85.32
27984;BME280;15317;50.360;8.726;2023-07-20T21:29:17;99109.94;;;17.27;84.63
27984;BME280;15317;50.360;8.726;2023-07-20T21:34:21;99120.50;;;17.24;87.21
27984;BME280;15317;50.360;8.726;2023-07-20T21:39:25;99120.50;;;17.17;85.75
27984;BME280;15317;50.360;8.726;2023-07-20T21:44:28;99119.66;;;17.23;85.79
27984;BME280;15317;50.360;8.726;2023-07-20T21:49:31;99122.41;;;17.23;86.16
27984;BME280;15317;50.360;8.726;2023-07-20T21:54:36;99118.59;;;17.18;86.63
27984;BME280;15317;50.360;8.726;2023-07-20T21:59:39;99113.72;;;17.07;88.52
27984;BME280;15317;50.360;8.726;2023-07-20T22:04:42;99111.84;;;17.07;87.02
27984;BME280;15317;50.360;8.726;2023-07-20T22:09:47;99112.47;;;17.09;87.28
27984;BME280;15317;50.360;8.726;2023-07-20T22:14:50;99112.47;;;17.03;86.94
27984;BME280;15317;50.360;8.726;2023-07-20T22:19:53;99105.28;;;17.02;88.03
27984;BME280;15317;50.360;8.726;2023-07-20T22:24:58;99102.13;;;16.98;84.16
27984;BME280;15317;50.360;8.726;2023-07-20T22:30:02;99098.13;;;17.01;86.89
27984;BME280;15317;50.360;8.726;2023-07-20T22:35:07;99095.56;;;16.99;84.74
27984;BME280;15317;50.360;8.726;2023-07-20T22:40:12;99096.00;;;17.03;85.63
27984;BME280;15317;50.360;8.726;2023-07-20T22:45:16;99090.72;;;17.08;83.96
27984;BME280;15317;50.360;8.726;2023-07-20T22:50:19;99099.16;;;17.13;81.91
27984;BME280;15317;50.360;8.726;2023-07-20T22:55:24;99090.31;;;17.24;80.62
27984;BME280;15317;50.360;8.726;2023-07-20T23:00:27;99092.63;;;17.27;79.89
27984;BME280;15317;50.360;8.726;2023-07-20T23:05:33;99088.41;;;17.31;78.86
27984;BME280;15317;50.360;8.726;2023-07-20T23:10:38;99084.59;;;17.32;79.48
27984;BME280;15317;50.360;8.726;2023-07-20T23:15:41;99087.38;;;17.25;80.25
27984;BME280;15317;50.360;8.726;2023-07-20T23:20:44;99083.53;;;17.26;81.51
27984;BME280;15317;50.360;8.726;2023-07-20T23:25:54;99078.28;;;17.25;82.43
27984;BME280;15317;50.360;8.726;2023-07-20T23:30:59;99074.91;;;17.16;84.16
27984;BME280;15317;50.360;8.726;2023-07-20T23:36:03;99071.13;;;16.97;87.52
27984;BME280;15317;50.360;8.726;2023-07-20T23:41:11;99068.38;;;16.91;86.95
27984;BME280;15317;50.360;8.726;2023-07-20T23:46:15;99069.81;;;16.67;89.24
27984;BME280;15317;50.360;8.726;2023-07-20T23:51:25;99065.16;;;16.61;89.50
27984;BME280;15317;50.360;8.726;2023-07-20T23:56:29;99065.97;;;16.48;90.41
